Eskdalemuir, United Kingdom
Current Conditions -  °F | °C
As of 4:50 AM on Tuesday 27 Jan 2015 (Local Time) from EGOM Reporting Station
Moderate Rain Moderate Rain  
Wind Chill: -1°   Ceiling: Unl
Heat Index:   Visibility: 0.12mi
Dew Point:   Wind: 16mph
Humidity: 100%   Direction: 250°WSW
Pressure: 30.21"   Gusts: NA
Location:  55.27°N, 3.18°W
Report Text: EGOM 270450Z AUTO 25014KT 0200 RA VV/// 04/04 Q1023
Loading
Personal Weather Stations






























Interactive Weather Map New forecast layout! Learn more

10-Day Weather Forecast

Advertisements
Track Severe Weather on mobile